createdAt,value
2023-01-28T00:01:40.308Z,10.43
2023-01-28T00:04:07.130Z,9.55
2023-01-28T00:06:33.993Z,7.38
2023-01-28T00:09:00.889Z,9.95
2023-01-28T00:11:27.626Z,7.13
2023-01-28T00:13:55.097Z,7.70
2023-01-28T00:16:27.183Z,8.05
2023-01-28T00:18:54.912Z,9.77
2023-01-28T00:21:21.932Z,8.23
2023-01-28T00:23:56.355Z,8.75
2023-01-28T00:26:25.129Z,9.50
2023-01-28T00:28:51.910Z,6.90
2023-01-28T00:31:20.897Z,7.85
2023-01-28T00:33:50.149Z,10.95
2023-01-28T00:36:21.915Z,10.27
2023-01-28T00:38:53.956Z,9.35
2023-01-28T00:41:23.188Z,7.97
2023-01-28T00:43:50.901Z,9.50
2023-01-28T00:46:18.697Z,7.13
2023-01-28T00:48:45.880Z,8.63
2023-01-28T00:51:14.507Z,8.65
2023-01-28T00:53:41.487Z,5.72
2023-01-28T00:56:09.827Z,7.13
2023-01-28T00:58:36.689Z,10.27
2023-01-28T01:01:12.301Z,6.72
2023-01-28T01:03:39.845Z,7.78
2023-01-28T01:06:07.329Z,7.47
2023-01-28T01:08:40.050Z,7.93
2023-01-28T01:11:07.849Z,7.68
2023-01-28T01:13:35.080Z,10.15
2023-01-28T01:16:07.432Z,7.57
2023-01-28T01:18:35.313Z,8.25
2023-01-28T01:21:03.045Z,6.95
2023-01-28T01:23:32.108Z,8.38
2023-01-28T01:25:59.027Z,6.43
2023-01-28T01:28:25.875Z,8.25
2023-01-28T01:31:00.488Z,6.68
2023-01-28T01:33:29.710Z,9.23
2023-01-28T01:35:57.397Z,8.45
2023-01-28T01:38:24.256Z,11.23
2023-01-28T01:40:51.101Z,9.38
2023-01-28T01:43:22.887Z,11.50
2023-01-28T01:45:58.686Z,11.23
2023-01-28T01:48:31.658Z,8.63
2023-01-28T01:51:04.547Z,7.95
2023-01-28T01:56:02.866Z,9.60
2023-01-28T01:58:33.979Z,9.20
2023-01-28T02:01:00.764Z,14.40
2023-01-28T02:03:38.912Z,7.68
2023-01-28T02:06:05.916Z,9.68
2023-01-28T02:08:32.719Z,9.75
2023-01-28T02:11:04.309Z,10.15
2023-01-28T02:13:42.129Z,10.25
2023-01-28T02:16:10.060Z,12.57
2023-01-28T02:18:37.553Z,11.45
2023-01-28T02:21:04.259Z,12.65
2023-01-28T02:23:52.664Z,9.40
2023-01-28T02:26:49.769Z,12.25
2023-01-28T02:29:35.255Z,12.15
2023-01-28T02:32:30.582Z,13.80
2023-01-28T02:35:14.288Z,10.40
2023-01-28T02:37:51.066Z,12.70
2023-01-28T02:40:25.186Z,10.95
2023-01-28T02:42:52.027Z,10.20
2023-01-28T02:45:46.507Z,10.10
2023-01-28T02:48:13.646Z,10.13
2023-01-28T02:51:10.126Z,10.45
2023-01-28T02:54:03.858Z,10.27
2023-01-28T02:57:13.554Z,9.52
2023-01-28T02:59:49.467Z,14.13
2023-01-28T03:02:28.224Z,12.38
2023-01-28T03:04:57.812Z,9.20
2023-01-28T03:07:27.845Z,14.65
2023-01-28T03:09:58.949Z,10.88
2023-01-28T03:12:47.073Z,11.80
2023-01-28T03:15:51.201Z,12.38
2023-01-28T03:18:44.490Z,11.73
2023-01-28T03:24:33.682Z,10.60
2023-01-28T03:27:40.020Z,11.70
2023-01-28T03:30:32.712Z,12.05
2023-01-28T03:33:18.960Z,12.35
2023-01-28T03:36:07.270Z,12.20
2023-01-28T03:38:42.029Z,11.15
2023-01-28T03:41:11.576Z,11.02
2023-01-28T03:43:38.540Z,14.63
2023-01-28T03:46:06.457Z,11.98
2023-01-28T03:48:33.474Z,12.05
2023-01-28T03:51:03.190Z,12.00
2023-01-28T03:53:30.041Z,12.90
2023-01-28T03:55:56.837Z,15.25
2023-01-28T03:58:46.667Z,14.73
2023-01-28T04:01:14.114Z,16.83
2023-01-28T04:03:40.973Z,13.57
2023-01-28T04:06:10.212Z,16.35
2023-01-28T04:08:36.941Z,12.95
2023-01-28T04:11:15.879Z,16.52
2023-01-28T04:13:43.208Z,15.00
2023-01-28T04:16:11.170Z,15.00
2023-01-28T04:18:38.285Z,19.77
2023-01-28T04:21:05.320Z,15.20
2023-01-28T04:23:32.216Z,21.75
2023-01-28T04:25:59.027Z,16.33
2023-01-28T04:28:26.264Z,15.70
2023-01-28T04:30:53.637Z,18.48
2023-01-28T04:33:20.431Z,17.77
2023-01-28T04:35:47.299Z,18.48
2023-01-28T04:38:14.096Z,16.48
2023-01-28T04:40:40.821Z,16.75
2023-01-28T04:43:07.614Z,20.35
2023-01-28T04:45:34.411Z,15.80
2023-01-28T04:48:01.141Z,18.35
2023-01-28T04:50:27.902Z,16.83
2023-01-28T04:52:54.690Z,18.10
2023-01-28T04:55:21.476Z,22.27
2023-01-28T04:57:51.022Z,18.58
2023-01-28T05:00:18.374Z,19.30
2023-01-28T05:02:45.132Z,16.85
2023-01-28T05:05:11.867Z,20.15
2023-01-28T05:07:38.665Z,19.80
2023-01-28T05:10:06.140Z,19.10
2023-01-28T05:12:34.150Z,20.08
2023-01-28T05:15:01.298Z,17.73
2023-01-28T05:17:29.201Z,18.08
2023-01-28T05:19:56.045Z,19.17
2023-01-28T05:22:23.073Z,17.80
2023-01-28T05:24:49.871Z,18.83
2023-01-28T05:27:16.638Z,18.20
2023-01-28T05:29:43.512Z,19.77
2023-01-28T05:32:10.257Z,17.23
2023-01-28T05:34:37.069Z,20.45
2023-01-28T05:37:03.903Z,22.13
2023-01-28T05:39:31.477Z,17.73
2023-01-28T05:41:58.266Z,16.52
2023-01-28T05:44:25.026Z,20.88
2023-01-28T05:46:51.772Z,16.00
2023-01-28T05:49:18.496Z,19.23
2023-01-28T05:51:48.406Z,19.65
2023-01-28T05:54:15.232Z,16.85
2023-01-28T05:56:42.008Z,17.05
2023-01-28T05:59:11.987Z,13.85
2023-01-28T06:01:38.844Z,14.30
2023-01-28T06:04:05.718Z,16.02
2023-01-28T06:06:32.519Z,14.38
2023-01-28T06:08:59.375Z,13.43
2023-01-28T06:11:26.114Z,18.65
2023-01-28T06:13:52.865Z,15.38
2023-01-28T06:16:19.667Z,17.30
2023-01-28T06:18:46.424Z,16.73
2023-01-28T06:21:13.926Z,15.20
2023-01-28T06:23:40.794Z,14.20
2023-01-28T06:26:07.581Z,15.90
2023-01-28T06:28:34.505Z,14.85
2023-01-28T06:31:01.357Z,14.95
2023-01-28T06:33:29.530Z,15.57
2023-01-28T06:35:56.543Z,14.82
2023-01-28T06:38:23.362Z,16.95
2023-01-28T06:40:55.950Z,14.50
2023-01-28T06:43:28.099Z,17.67
2023-01-28T06:45:55.350Z,15.13
2023-01-28T06:48:22.684Z,13.88
2023-01-28T06:50:50.008Z,15.57
2023-01-28T06:53:17.403Z,15.93
2023-01-28T06:55:44.229Z,16.52
2023-01-28T06:58:11.207Z,16.83
2023-01-28T07:00:38.264Z,15.27
2023-01-28T07:03:05.746Z,14.60
2023-01-28T07:05:32.609Z,14.40
2023-01-28T07:07:59.426Z,13.50
2023-01-28T07:10:26.287Z,12.18
2023-01-28T07:12:53.084Z,16.63
2023-01-28T07:15:19.898Z,14.95
2023-01-28T07:17:46.654Z,13.93
2023-01-28T07:20:16.037Z,15.18
2023-01-28T07:22:44.102Z,11.63
2023-01-28T07:25:12.482Z,14.82
2023-01-28T07:27:39.394Z,18.92
2023-01-28T07:30:06.645Z,15.50
2023-01-28T07:32:33.499Z,12.32
2023-01-28T07:35:00.196Z,13.35
2023-01-28T07:37:27.056Z,13.77
2023-01-28T07:39:53.843Z,16.92
2023-01-28T07:42:20.580Z,15.10
2023-01-28T07:44:47.361Z,15.38
2023-01-28T07:47:14.167Z,13.93
2023-01-28T07:49:41.087Z,15.93
2023-01-28T07:52:08.847Z,12.38
2023-01-28T07:54:35.724Z,17.50
2023-01-28T07:57:02.796Z,12.52
2023-01-28T07:59:29.585Z,13.52
2023-01-28T08:01:56.351Z,16.88
2023-01-28T08:04:23.245Z,15.68
2023-01-28T08:06:52.291Z,15.90
2023-01-28T08:09:19.094Z,14.95
2023-01-28T08:11:46.034Z,15.15
2023-01-28T08:14:12.837Z,13.02
2023-01-28T08:16:39.727Z,17.13
2023-01-28T08:19:06.570Z,14.50
2023-01-28T08:21:33.395Z,18.48
2023-01-28T08:24:00.159Z,15.65
2023-01-28T08:26:26.929Z,13.40
2023-01-28T08:28:53.669Z,13.75
2023-01-28T08:31:20.506Z,13.55
2023-01-28T08:33:47.330Z,15.00
2023-01-28T08:36:14.296Z,11.43
2023-01-28T08:38:41.142Z,15.45
2023-01-28T08:41:07.847Z,14.63
2023-01-28T08:43:34.666Z,13.20
2023-01-28T08:46:01.486Z,15.73
2023-01-28T08:48:28.362Z,14.65
2023-01-28T08:50:59.415Z,14.93
2023-01-28T08:53:26.149Z,11.75
2023-01-28T08:55:54.398Z,14.35
2023-01-28T08:58:21.747Z,18.05
2023-01-28T09:00:49.316Z,14.30
2023-01-28T09:03:17.082Z,14.10
2023-01-28T09:05:44.181Z,15.63
2023-01-28T09:08:13.999Z,13.55
2023-01-28T09:10:42.129Z,15.25
2023-01-28T09:13:11.768Z,13.32
2023-01-28T09:15:38.842Z,11.65
2023-01-28T09:18:06.427Z,14.95
2023-01-28T09:20:33.802Z,14.77
2023-01-28T09:23:01.900Z,11.02
2023-01-28T09:25:28.898Z,12.98
2023-01-28T09:27:55.891Z,12.20
2023-01-28T09:30:22.811Z,14.13
2023-01-28T09:32:53.990Z,10.55
2023-01-28T09:35:21.313Z,13.77
2023-01-28T09:37:48.889Z,12.85
2023-01-28T09:40:40.844Z,13.68
2023-01-28T09:43:25.769Z,12.82
2023-01-28T09:45:55.792Z,16.58
2023-01-28T09:48:34.386Z,14.70
2023-01-28T09:51:01.895Z,13.82
2023-01-28T09:53:30.710Z,14.13
2023-01-28T09:56:00.715Z,14.05
2023-01-28T09:58:27.826Z,15.05
2023-01-28T10:01:19.452Z,13.85
2023-01-28T10:04:07.699Z,12.93
2023-01-28T10:06:41.462Z,13.80
2023-01-28T10:09:36.706Z,14.15
2023-01-28T10:12:25.266Z,12.88
2023-01-28T10:14:57.942Z,14.23
2023-01-28T10:17:42.355Z,13.00
2023-01-28T10:20:12.273Z,12.63
2023-01-28T10:22:48.519Z,14.45
2023-01-28T10:25:24.336Z,12.30
2023-01-28T10:27:52.024Z,15.00
2023-01-28T10:30:22.002Z,10.57
2023-01-28T10:33:05.465Z,14.38
2023-01-28T10:35:41.936Z,12.73
2023-01-28T10:38:14.488Z,15.60
2023-01-28T10:40:42.363Z,11.45
2023-01-28T10:43:09.810Z,11.65
2023-01-28T10:45:57.587Z,15.07
2023-01-28T10:48:29.963Z,13.43
2023-01-28T10:51:02.753Z,15.32
2023-01-28T10:56:17.972Z,11.70
2023-01-28T10:59:01.920Z,10.45
2023-01-28T11:01:45.083Z,12.82
2023-01-28T11:04:28.553Z,12.02
2023-01-28T11:07:05.587Z,15.77
2023-01-28T11:09:37.305Z,12.05
2023-01-28T11:12:13.723Z,13.50
2023-01-28T11:14:52.278Z,12.07
2023-01-28T11:17:21.584Z,13.60
2023-01-28T11:19:48.954Z,13.73
2023-01-28T11:22:39.167Z,15.52
2023-01-28T11:25:18.635Z,11.45
2023-01-28T11:27:51.393Z,13.43
2023-01-28T11:33:14.917Z,10.52
2023-01-28T11:35:41.754Z,11.05
2023-01-28T11:38:21.601Z,13.80
2023-01-28T11:40:53.455Z,10.63
2023-01-28T11:43:28.355Z,11.13
2023-01-28T11:45:58.235Z,11.50
2023-01-28T11:48:37.580Z,9.93
2023-01-28T11:51:20.510Z,10.38
2023-01-28T11:53:56.429Z,11.40
2023-01-28T11:56:46.248Z,16.02
2023-01-28T11:59:28.097Z,12.68
2023-01-28T12:02:39.930Z,10.32
2023-01-28T12:05:24.503Z,10.52
2023-01-28T12:08:03.918Z,10.80
2023-01-28T12:10:42.721Z,11.48
2023-01-28T12:13:46.335Z,11.57
2023-01-28T12:16:34.526Z,14.20
2023-01-28T12:21:55.459Z,16.30
2023-01-28T12:24:46.468Z,17.48
2023-01-28T12:27:21.917Z,16.70
2023-01-28T12:30:16.836Z,16.48
2023-01-28T12:32:52.568Z,18.25
2023-01-28T12:35:32.560Z,16.83
2023-01-28T12:38:23.975Z,14.93
2023-01-28T12:41:10.661Z,19.35
2023-01-28T12:43:52.375Z,20.05
2023-01-28T12:46:38.695Z,19.45
2023-01-28T12:49:30.237Z,16.55
2023-01-28T12:52:19.041Z,15.90
2023-01-28T12:55:03.258Z,18.13
2023-01-28T12:57:32.859Z,16.40
2023-01-28T13:00:30.152Z,13.48
2023-01-28T13:03:30.567Z,16.20
2023-01-28T13:06:01.900Z,12.70
2023-01-28T13:08:29.576Z,13.32
2023-01-28T13:11:00.275Z,15.25
2023-01-28T13:13:39.079Z,16.38
2023-01-28T13:16:09.827Z,15.75
2023-01-28T13:18:44.468Z,15.70
2023-01-28T13:21:25.466Z,17.27
2023-01-28T13:24:18.321Z,15.32
2023-01-28T13:26:48.271Z,16.02
2023-01-28T13:29:14.918Z,15.75
2023-01-28T13:31:47.418Z,17.08
2023-01-28T13:34:29.703Z,15.73
2023-01-28T13:36:58.315Z,16.60
2023-01-28T13:39:27.457Z,19.00
2023-01-28T13:42:29.094Z,18.35
2023-01-28T13:45:08.237Z,18.27
2023-01-28T13:47:37.558Z,14.43
2023-01-28T13:50:15.724Z,19.98
2023-01-28T13:53:39.740Z,17.75
2023-01-28T13:59:07.030Z,14.13
2023-01-28T14:01:55.073Z,14.90
2023-01-28T14:04:30.712Z,13.70
2023-01-28T14:07:27.464Z,13.25
2023-01-28T14:10:06.275Z,15.93
2023-01-28T14:13:02.611Z,13.02
2023-01-28T14:15:56.428Z,10.48
2023-01-28T14:18:30.703Z,11.25
2023-01-28T14:21:02.506Z,10.25
2023-01-28T14:23:32.416Z,10.20
2023-01-28T14:26:32.923Z,9.85
2023-01-28T14:29:48.279Z,13.18
2023-01-28T14:32:21.839Z,12.10
2023-01-28T14:34:49.278Z,14.85
2023-01-28T14:37:22.730Z,13.85
2023-01-28T14:39:53.149Z,15.00
2023-01-28T14:42:39.929Z,13.45
2023-01-28T14:45:40.594Z,13.40
2023-01-28T14:48:15.001Z,13.77
2023-01-28T14:51:03.082Z,11.90
2023-01-28T14:53:48.462Z,12.90
2023-01-28T14:56:31.412Z,16.98
2023-01-28T14:59:16.334Z,11.95
2023-01-28T15:01:48.126Z,11.45
2023-01-28T15:04:29.433Z,9.95
2023-01-28T15:06:57.897Z,15.60
2023-01-28T15:09:24.716Z,12.05
2023-01-28T15:11:54.833Z,10.32
2023-01-28T15:14:32.421Z,12.32
2023-01-28T15:17:00.045Z,13.57
2023-01-28T15:19:35.383Z,11.07
2023-01-28T15:22:07.744Z,13.38
2023-01-28T15:24:35.563Z,13.48
2023-01-28T15:27:02.787Z,13.45
2023-01-28T15:29:37.684Z,12.25
2023-01-28T15:32:05.261Z,14.18
2023-01-28T15:34:32.553Z,13.73
2023-01-28T15:37:00.691Z,17.65
2023-01-28T15:39:29.360Z,10.73
2023-01-28T15:42:07.332Z,13.15
2023-01-28T15:44:46.728Z,15.50
2023-01-28T15:47:16.667Z,12.32
2023-01-28T15:49:47.149Z,13.52
2023-01-28T15:52:14.221Z,13.15
2023-01-28T15:54:44.425Z,11.55
2023-01-28T15:57:25.278Z,16.88
2023-01-28T15:59:52.086Z,15.18
2023-01-28T16:02:25.796Z,25.02
2023-01-28T16:05:00.471Z,21.38
2023-01-28T16:07:30.187Z,21.38
2023-01-28T16:09:59.074Z,22.50
2023-01-28T16:12:27.032Z,19.25
2023-01-28T16:15:02.442Z,23.67
2023-01-28T16:17:35.832Z,23.20
2023-01-28T16:20:06.630Z,22.45
2023-01-28T16:22:39.522Z,28.30
2023-01-28T16:25:21.404Z,28.80
2023-01-28T17:21:55.197Z,37.67
2023-01-28T17:24:22.024Z,42.88
2023-01-28T17:26:53.042Z,36.38
2023-01-28T17:29:19.840Z,35.60
2023-01-28T17:31:46.695Z,40.33
2023-01-28T17:34:13.535Z,32.40
2023-01-28T17:36:40.298Z,34.72
2023-01-28T17:39:07.506Z,34.75
2023-01-28T17:41:34.542Z,50.22
2023-01-28T17:44:01.358Z,70.28
2023-01-28T17:46:28.169Z,43.63
2023-01-28T17:48:55.053Z,119.75
2023-01-28T17:51:22.574Z,94.95
2023-01-28T17:53:51.449Z,61.65
2023-01-28T17:56:23.574Z,59.63
2023-01-28T17:58:55.039Z,43.85
2023-01-28T18:01:24.290Z,49.20
2023-01-28T18:03:51.780Z,50.63
2023-01-28T18:06:18.835Z,80.47
2023-01-28T18:08:47.640Z,54.22
2023-01-28T18:11:17.334Z,38.78
2023-01-28T18:13:44.742Z,52.38
2023-01-28T18:16:15.621Z,47.60
2023-01-28T18:18:42.593Z,62.08
2023-01-28T18:21:31.673Z,45.58
2023-01-28T18:24:02.151Z,53.85
2023-01-28T18:26:28.902Z,57.55
2023-01-28T18:28:57.810Z,52.13
2023-01-28T18:31:25.774Z,45.08
2023-01-28T18:33:52.776Z,49.83
2023-01-28T18:36:19.857Z,46.13
2023-01-28T18:38:46.621Z,49.17
2023-01-28T18:41:14.606Z,51.22
2023-01-28T18:43:41.883Z,72.72
2023-01-28T18:46:17.990Z,61.58
2023-01-28T18:48:44.888Z,63.00
2023-01-28T18:51:28.771Z,68.78
2023-01-28T18:54:02.221Z,64.93
2023-01-28T18:56:29.683Z,67.07
2023-01-28T18:59:01.803Z,73.00
2023-01-28T19:01:29.586Z,62.60
2023-01-28T19:03:58.596Z,64.47
2023-01-28T19:06:26.896Z,57.72
2023-01-28T19:08:58.669Z,61.53
2023-01-28T19:11:28.340Z,61.45
2023-01-28T19:13:55.649Z,60.13
2023-01-28T19:16:23.257Z,58.35
2023-01-28T19:18:58.398Z,62.65
2023-01-28T19:21:26.358Z,63.58
2023-01-28T19:24:07.204Z,57.40
2023-01-28T19:26:34.769Z,61.70
2023-01-28T19:29:01.754Z,65.47
2023-01-28T19:31:31.556Z,68.72
2023-01-28T19:34:00.095Z,65.82
2023-01-28T19:36:30.018Z,68.70
2023-01-28T19:39:06.142Z,68.65
2023-01-28T19:41:33.985Z,74.20
2023-01-28T19:44:00.902Z,74.95
2023-01-28T19:46:28.234Z,72.38
2023-01-28T19:48:55.481Z,66.75
2023-01-28T19:51:23.036Z,74.35
2023-01-28T19:53:51.924Z,71.07
2023-01-28T19:56:20.280Z,71.22
2023-01-28T19:58:47.390Z,74.18
2023-01-28T20:01:20.902Z,70.20
2023-01-28T20:03:54.512Z,78.93
2023-01-28T20:06:23.999Z,82.35
2023-01-28T20:08:56.152Z,74.35
2023-01-28T20:11:23.490Z,73.00
2023-01-28T20:13:51.755Z,94.13
2023-01-28T20:16:30.844Z,81.03
2023-01-28T20:19:12.847Z,80.38
2023-01-28T20:21:39.763Z,86.78
2023-01-28T20:24:07.244Z,91.03
2023-01-28T20:26:37.373Z,90.35
2023-01-28T20:29:13.224Z,92.40
2023-01-28T20:31:41.884Z,92.47
2023-01-28T20:34:15.151Z,94.72
2023-01-28T20:36:42.382Z,91.53
2023-01-28T20:39:09.760Z,90.93
2023-01-28T20:41:36.830Z,92.25
2023-01-28T20:44:03.938Z,93.57
2023-01-28T20:46:33.144Z,95.03
2023-01-28T20:49:03.123Z,100.32
2023-01-28T20:51:33.907Z,96.38
2023-01-28T20:54:02.550Z,95.95
2023-01-28T20:56:31.125Z,95.28
2023-01-28T20:59:01.064Z,97.70
2023-01-28T21:01:30.755Z,102.00
2023-01-28T21:03:57.710Z,95.25
2023-01-28T21:06:25.390Z,100.75
2023-01-28T21:08:53.170Z,99.35
2023-01-28T21:11:21.637Z,98.20
2023-01-28T21:13:48.572Z,102.25
2023-01-28T21:16:18.766Z,95.55
2023-01-28T21:18:45.881Z,101.93
2023-01-28T21:21:26.118Z,103.07
2023-01-28T21:23:59.714Z,106.05
2023-01-28T21:26:26.807Z,102.20
2023-01-28T21:28:53.615Z,104.68
2023-01-28T21:31:23.829Z,106.88
2023-01-28T21:33:55.481Z,117.40
2023-01-28T21:36:23.822Z,107.85
2023-01-28T21:38:52.903Z,110.35
2023-01-28T21:41:19.824Z,106.90
2023-01-28T21:43:53.376Z,103.50
2023-01-28T21:46:21.203Z,106.38
2023-01-28T21:48:48.131Z,107.03
2023-01-28T21:51:33.598Z,115.18
2023-01-28T21:54:00.377Z,113.30
2023-01-28T21:56:27.506Z,113.15
2023-01-28T21:59:12.967Z,112.82
2023-01-28T22:01:39.891Z,101.20
2023-01-28T22:04:06.745Z,112.78
2023-01-28T22:06:33.576Z,105.97
2023-01-28T22:09:00.459Z,110.15
2023-01-28T22:11:27.288Z,111.85
2023-01-28T22:13:54.119Z,115.20
2023-01-28T22:16:21.056Z,117.95
2023-01-28T22:18:50.106Z,113.82
2023-01-28T22:21:19.899Z,115.28
2023-01-28T22:23:46.636Z,117.45
2023-01-28T22:26:13.539Z,124.28
2023-01-28T22:28:40.348Z,130.27
2023-01-28T22:31:12.162Z,125.35
2023-01-28T22:33:39.891Z,122.23
2023-01-28T22:36:13.867Z,122.05
2023-01-28T22:38:45.004Z,127.53
2023-01-28T22:41:23.160Z,116.30
2023-01-28T22:43:52.066Z,124.43
2023-01-28T22:46:21.254Z,120.30
2023-01-28T22:48:48.570Z,121.72
2023-01-28T22:51:19.195Z,123.35
2023-01-28T22:53:47.109Z,126.20
2023-01-28T22:56:14.688Z,131.05
2023-01-28T22:58:41.675Z,124.80
2023-01-28T23:01:09.001Z,122.47
2023-01-28T23:03:36.301Z,135.23
2023-01-28T23:06:04.874Z,131.25
2023-01-28T23:08:33.132Z,125.53
2023-01-28T23:11:02.369Z,125.65
2023-01-28T23:13:53.178Z,128.20
2023-01-28T23:16:38.753Z,126.97
2023-01-28T23:19:20.932Z,123.60
2023-01-28T23:22:07.075Z,134.43
2023-01-28T23:24:34.073Z,127.25
2023-01-28T23:27:02.912Z,131.65
2023-01-28T23:29:31.490Z,133.52
2023-01-28T23:32:04.609Z,127.57
2023-01-28T23:34:46.251Z,120.80
2023-01-28T23:39:50.376Z,122.88
2023-01-28T23:42:20.844Z,122.75
2023-01-28T23:44:47.797Z,130.90
2023-01-28T23:47:15.139Z,129.40
2023-01-28T23:49:42.271Z,122.90
2023-01-28T23:52:09.431Z,119.20
2023-01-28T23:54:36.578Z,127.60
2023-01-28T23:57:08.010Z,124.82
2023-01-28T23:59:34.964Z,131.77
